Lake Wazeecha, Wisconsin
Current Conditions -  °F | °C
As of 5:54 PM on Friday 19 Dec 2014 (Local Time) from KISW Reporting Station
Overcast Overcast  
Wind Chill: 17°   Ceiling: 1100
Heat Index: 24°   Visibility: 10mi
Dew Point: 19°   Wind: 6mph
Humidity: 81%   Direction: 170°S
Pressure: 30.29"   Gusts: NA
Location:  44.3431°N, 89.7334°W
Report Text: KISW 192354Z AUTO 17005KT 10SM OVC011 M04/M07 A3029 RMK AO2 SLP274 T10441072 11039 21044 50008
Loading
Personal Weather Stations






























Interactive Weather Map New forecast layout! Learn more

10-Day Weather Forecast

Advertisements
Track Severe Weather on mobile